createdAt,value
2023-04-20T00:02:08.669Z,100.00
2023-04-20T00:04:49.016Z,100.00
2023-04-20T00:07:30.194Z,100.00
2023-04-20T00:10:11.599Z,100.00
2023-04-20T00:12:46.425Z,100.00
2023-04-20T00:15:27.077Z,100.00
2023-04-20T00:18:04.764Z,100.00
2023-04-20T00:20:37.633Z,100.00
2023-04-20T00:23:21.518Z,100.00
2023-04-20T00:25:59.186Z,100.00
2023-04-20T00:28:37.429Z,100.00
2023-04-20T00:31:18.843Z,100.00
2023-04-20T00:33:59.714Z,100.00
2023-04-20T00:36:33.399Z,100.00
2023-04-20T00:39:11.771Z,100.00
2023-04-20T00:41:41.951Z,100.00
2023-04-20T00:44:23.738Z,100.00
2023-04-20T00:47:05.942Z,100.00
2023-04-20T00:49:48.643Z,100.00
2023-04-20T00:52:23.596Z,100.00
2023-04-20T00:54:55.789Z,100.00
2023-04-20T00:57:39.146Z,100.00
2023-04-20T01:00:15.513Z,100.00
2023-04-20T01:02:58.864Z,100.00
2023-04-20T01:05:32.626Z,100.00
2023-04-20T01:08:31.553Z,100.00
2023-04-20T01:11:09.165Z,100.00
2023-04-20T01:13:49.836Z,100.00
2023-04-20T01:16:25.576Z,100.00
2023-04-20T01:19:08.693Z,100.00
2023-04-20T01:21:41.703Z,100.00
2023-04-20T01:24:19.975Z,100.00
2023-04-20T01:27:00.413Z,100.00
2023-04-20T01:29:38.725Z,100.00
2023-04-20T01:32:22.517Z,100.00
2023-04-20T01:34:58.146Z,100.00
2023-04-20T01:37:39.220Z,100.00
2023-04-20T01:40:16.875Z,100.00
2023-04-20T01:42:54.277Z,100.00
2023-04-20T01:45:36.676Z,100.00
2023-04-20T01:48:10.048Z,100.00
2023-04-20T01:50:42.822Z,100.00
2023-04-20T01:53:25.366Z,100.00
2023-04-20T01:56:02.724Z,100.00
2023-04-20T01:58:45.920Z,100.00
2023-04-20T02:01:18.776Z,100.00
2023-04-20T02:03:54.645Z,100.00
2023-04-20T02:06:32.123Z,100.00
2023-04-20T02:09:03.501Z,100.00
2023-04-20T02:11:36.772Z,100.00
2023-04-20T02:14:17.313Z,100.00
2023-04-20T02:16:53.573Z,100.00
2023-04-20T02:19:34.146Z,100.00
2023-04-20T02:22:09.140Z,100.00
2023-04-20T02:24:44.983Z,100.00
2023-04-20T02:27:29.138Z,100.00
2023-04-20T02:30:04.485Z,100.00
2023-04-20T02:32:49.007Z,100.00
2023-04-20T02:35:24.692Z,100.00
2023-04-20T02:38:07.647Z,100.00
2023-04-20T02:40:45.899Z,100.00
2023-04-20T02:43:28.282Z,100.00
2023-04-20T02:46:04.453Z,100.00
2023-04-20T02:48:49.188Z,100.00
2023-04-20T02:51:29.770Z,100.00
2023-04-20T02:54:03.800Z,100.00
2023-04-20T02:56:40.867Z,100.00
2023-04-20T02:59:17.870Z,100.00
2023-04-20T03:02:12.331Z,100.00
2023-04-20T03:04:50.474Z,100.00
2023-04-20T03:07:29.578Z,100.00
2023-04-20T03:10:08.335Z,100.00
2023-04-20T03:13:02.333Z,100.00
2023-04-20T03:15:59.360Z,100.00
2023-04-20T03:18:41.991Z,100.00
2023-04-20T03:21:20.166Z,100.00
2023-04-20T03:23:55.552Z,100.00
2023-04-20T03:26:33.821Z,100.00
2023-04-20T03:29:41.208Z,100.00
2023-04-20T03:32:21.074Z,100.00
2023-04-20T03:35:01.069Z,100.00
2023-04-20T03:37:41.524Z,100.00
2023-04-20T03:40:22.640Z,100.00
2023-04-20T03:42:49.716Z,100.00
2023-04-20T03:45:30.164Z,100.00
2023-04-20T03:48:10.464Z,100.00
2023-04-20T03:50:50.826Z,100.00
2023-04-20T03:53:29.104Z,100.00
2023-04-20T03:56:07.796Z,100.00
2023-04-20T03:58:48.089Z,100.00
2023-04-20T04:01:30.169Z,100.00
2023-04-20T04:04:14.100Z,100.00
2023-04-20T04:06:52.311Z,100.00
2023-04-20T04:09:32.408Z,100.00
2023-04-20T04:12:13.308Z,100.00
2023-04-20T04:14:49.450Z,100.00
2023-04-20T04:17:32.821Z,100.00
2023-04-20T04:20:15.962Z,100.00
2023-04-20T04:22:54.129Z,100.00
2023-04-20T04:25:48.736Z,100.00
2023-04-20T04:28:39.267Z,100.00
2023-04-20T04:31:22.097Z,100.00
2023-04-20T04:34:06.765Z,100.00
2023-04-20T04:36:53.967Z,100.00
2023-04-20T04:39:37.213Z,100.00
2023-04-20T04:42:28.743Z,100.00
2023-04-20T04:45:07.845Z,100.00
2023-04-20T04:47:51.739Z,100.00
2023-04-20T04:50:35.091Z,100.00
2023-04-20T04:53:17.997Z,100.00
2023-04-20T04:55:58.604Z,100.00
2023-04-20T04:58:38.462Z,100.00
2023-04-20T05:01:22.016Z,100.00
2023-04-20T05:04:03.073Z,100.00
2023-04-20T05:06:35.505Z,100.00
2023-04-20T05:09:13.272Z,100.00
2023-04-20T05:11:53.789Z,100.00
2023-04-20T05:14:37.134Z,100.00
2023-04-20T05:17:21.063Z,100.00
2023-04-20T05:19:54.430Z,100.00
2023-04-20T05:22:31.795Z,100.00
2023-04-20T05:25:14.647Z,100.00
2023-04-20T05:27:52.908Z,100.00
2023-04-20T05:30:31.898Z,100.00
2023-04-20T05:33:04.690Z,100.00
2023-04-20T05:35:45.831Z,100.00
2023-04-20T05:38:21.708Z,100.00
2023-04-20T05:40:57.916Z,100.00
2023-04-20T05:43:48.615Z,100.00
2023-04-20T05:46:24.308Z,100.00
2023-04-20T05:49:05.108Z,100.00
2023-04-20T05:51:48.212Z,100.00
2023-04-20T05:54:20.630Z,100.00
2023-04-20T05:57:01.494Z,100.00
2023-04-20T05:59:39.474Z,100.00
2023-04-20T06:02:17.320Z,98.70
2023-04-20T06:04:55.732Z,99.65
2023-04-20T06:07:28.808Z,96.82
2023-04-20T06:10:09.829Z,94.37
2023-04-20T06:12:48.254Z,88.54
2023-04-20T06:15:26.051Z,90.97
2023-04-20T06:18:08.607Z,86.73
2023-04-20T06:20:46.610Z,85.92
2023-04-20T06:23:26.752Z,85.68
2023-04-20T06:26:04.619Z,83.71
2023-04-20T06:28:43.204Z,82.73
2023-04-20T06:31:18.595Z,83.90
2023-04-20T06:34:01.847Z,79.29
2023-04-20T06:36:42.640Z,79.24
2023-04-20T06:39:18.015Z,80.83
2023-04-20T06:41:53.360Z,78.04
2023-04-20T06:44:32.191Z,77.09
2023-04-20T06:47:13.030Z,77.82
2023-04-20T06:49:54.122Z,75.70
2023-04-20T06:52:32.085Z,75.62
2023-04-20T06:55:13.437Z,76.04
2023-04-20T06:57:51.496Z,74.51
2023-04-20T07:00:28.880Z,76.74
2023-04-20T07:03:11.815Z,72.20
2023-04-20T07:05:52.847Z,73.04
2023-04-20T07:08:32.376Z,70.58
2023-04-20T07:11:08.673Z,69.38
2023-04-20T07:13:52.847Z,67.93
2023-04-20T07:16:33.139Z,72.36
2023-04-20T07:19:13.708Z,70.55
2023-04-20T07:21:48.311Z,69.80
2023-04-20T07:24:32.021Z,65.82
2023-04-20T07:27:06.936Z,67.98
2023-04-20T07:29:40.783Z,63.27
2023-04-20T07:32:22.542Z,63.84
2023-04-20T07:34:57.862Z,60.51
2023-04-20T07:37:39.203Z,58.74
2023-04-20T07:40:14.160Z,59.78
2023-04-20T07:42:55.648Z,60.14
2023-04-20T07:45:36.797Z,58.75
2023-04-20T07:48:23.065Z,57.42
2023-04-20T07:51:01.519Z,60.26
2023-04-20T07:53:37.344Z,59.15
2023-04-20T07:56:18.763Z,58.56
2023-04-20T07:58:56.745Z,55.60
2023-04-20T08:01:34.246Z,56.30
2023-04-20T08:04:12.196Z,56.48
2023-04-20T08:06:56.988Z,54.93
2023-04-20T08:09:29.750Z,55.22
2023-04-20T08:12:13.561Z,55.82
2023-04-20T08:14:48.130Z,54.96
2023-04-20T08:17:25.983Z,56.11
2023-04-20T08:20:01.774Z,55.05
2023-04-20T08:22:42.629Z,56.46
2023-04-20T08:25:22.906Z,54.64
2023-04-20T08:28:01.107Z,55.46
2023-04-20T08:30:41.214Z,54.35
2023-04-20T08:33:12.700Z,56.75
2023-04-20T08:35:50.955Z,53.63
2023-04-20T08:38:36.596Z,53.43
2023-04-20T08:41:15.531Z,55.99
2023-04-20T08:43:54.372Z,55.60
2023-04-20T08:46:33.520Z,51.69
2023-04-20T08:49:10.679Z,54.39
2023-04-20T08:51:58.669Z,53.27
2023-04-20T08:54:56.174Z,53.86
2023-04-20T08:57:35.631Z,51.05
2023-04-20T09:00:13.570Z,51.60
2023-04-20T09:03:07.435Z,50.99
2023-04-20T09:05:47.321Z,50.87
2023-04-20T09:08:31.931Z,50.08
2023-04-20T09:11:08.630Z,49.86
2023-04-20T09:13:59.189Z,48.09
2023-04-20T09:16:41.471Z,49.63
2023-04-20T09:19:21.859Z,52.04
2023-04-20T09:21:59.913Z,47.14
2023-04-20T09:24:42.803Z,46.67
2023-04-20T09:27:30.095Z,46.72
2023-04-20T09:30:10.310Z,46.79
2023-04-20T09:32:49.777Z,45.35
2023-04-20T09:35:31.313Z,46.10
2023-04-20T09:38:16.894Z,44.10
2023-04-20T09:40:57.609Z,47.51
2023-04-20T09:43:36.606Z,44.59
2023-04-20T09:46:09.106Z,45.38
2023-04-20T09:48:46.976Z,45.04
2023-04-20T09:51:25.228Z,45.50
2023-04-20T09:54:17.318Z,44.17
2023-04-20T09:56:52.203Z,44.85
2023-04-20T09:59:26.890Z,46.19
2023-04-20T10:02:13.259Z,46.19
2023-04-20T10:05:05.675Z,45.88
2023-04-20T10:07:46.402Z,46.26
2023-04-20T10:10:21.607Z,46.45
2023-04-20T10:12:58.645Z,47.32
2023-04-20T10:15:44.335Z,47.48
2023-04-20T10:18:26.713Z,45.15
2023-04-20T10:21:24.940Z,46.18
2023-04-20T10:24:06.671Z,43.79
2023-04-20T10:26:45.607Z,43.20
2023-04-20T10:29:38.124Z,46.76
2023-04-20T10:32:21.169Z,42.91
2023-04-20T10:35:18.639Z,41.83
2023-04-20T10:37:59.303Z,44.23
2023-04-20T10:40:35.172Z,41.62
2023-04-20T10:43:23.781Z,41.19
2023-04-20T10:46:18.748Z,42.01
2023-04-20T10:49:01.375Z,43.25
2023-04-20T10:51:39.160Z,42.81
2023-04-20T10:54:18.409Z,41.02
2023-04-20T10:56:57.409Z,43.26
2023-04-20T10:59:42.150Z,44.92
2023-04-20T11:02:20.776Z,44.23
2023-04-20T11:05:01.345Z,43.46
2023-04-20T11:07:47.766Z,46.21
2023-04-20T11:10:24.857Z,46.31
2023-04-20T11:13:03.511Z,42.94
2023-04-20T11:15:45.222Z,41.77
2023-04-20T11:18:23.049Z,40.68
2023-04-20T11:21:15.858Z,41.40
2023-04-20T11:23:52.846Z,41.88
2023-04-20T11:26:28.585Z,41.78
2023-04-20T11:29:07.841Z,42.05
2023-04-20T11:31:43.549Z,41.95
2023-04-20T11:34:31.095Z,41.36
2023-04-20T11:37:13.970Z,41.58
2023-04-20T11:39:52.111Z,42.67
2023-04-20T11:42:35.486Z,43.08
2023-04-20T11:45:14.588Z,41.45
2023-04-20T11:47:47.451Z,39.00
2023-04-20T11:50:29.240Z,39.71
2023-04-20T11:53:09.946Z,38.00
2023-04-20T11:55:49.345Z,40.26
2023-04-20T11:58:28.639Z,40.80
2023-04-20T12:01:06.328Z,38.92
2023-04-20T12:03:47.506Z,38.67
2023-04-20T12:06:27.265Z,40.31
2023-04-20T12:09:00.300Z,35.96
2023-04-20T12:11:41.974Z,36.79
2023-04-20T12:14:22.613Z,39.35
2023-04-20T12:17:04.637Z,38.41
2023-04-20T12:19:46.510Z,38.11
2023-04-20T12:22:30.372Z,36.90
2023-04-20T12:25:11.381Z,38.67
2023-04-20T12:27:50.015Z,40.66
2023-04-20T12:30:36.377Z,36.29
2023-04-20T12:33:12.640Z,36.79
2023-04-20T12:35:55.513Z,40.59
2023-04-20T12:38:29.466Z,39.51
2023-04-20T12:41:05.045Z,36.56
2023-04-20T12:43:43.254Z,35.40
2023-04-20T12:46:29.918Z,36.02
2023-04-20T12:49:10.788Z,34.32
2023-04-20T12:51:46.629Z,37.50
2023-04-20T12:54:24.587Z,36.56
2023-04-20T12:57:05.282Z,36.77
2023-04-20T12:59:40.462Z,41.33
2023-04-20T13:02:18.111Z,35.66
2023-04-20T13:04:56.641Z,34.91
2023-04-20T13:07:39.867Z,34.40
2023-04-20T13:10:16.595Z,37.72
2023-04-20T13:13:00.922Z,35.79
2023-04-20T13:15:41.698Z,36.56
2023-04-20T13:18:24.933Z,32.34
2023-04-20T13:21:02.878Z,33.39
2023-04-20T13:23:40.003Z,33.01
2023-04-20T13:26:23.391Z,32.48
2023-04-20T13:29:01.063Z,36.73
2023-04-20T13:31:38.945Z,33.60
2023-04-20T13:34:14.686Z,34.03
2023-04-20T13:36:49.424Z,36.78
2023-04-20T13:39:32.582Z,38.45
2023-04-20T13:42:13.921Z,36.92
2023-04-20T13:44:52.502Z,39.04
2023-04-20T13:47:33.128Z,38.71
2023-04-20T13:50:11.215Z,37.13
2023-04-20T13:52:49.377Z,37.20
2023-04-20T13:55:32.849Z,38.30
2023-04-20T13:58:15.422Z,38.80
2023-04-20T14:00:52.861Z,35.84
2023-04-20T14:03:36.709Z,36.03
2023-04-20T14:06:20.523Z,37.07
2023-04-20T14:08:59.093Z,35.43
2023-04-20T14:11:43.728Z,34.09
2023-04-20T14:14:28.096Z,35.15
2023-04-20T14:17:14.760Z,36.44
2023-04-20T14:19:59.592Z,35.12
2023-04-20T14:22:36.771Z,38.50
2023-04-20T14:25:16.166Z,38.68
2023-04-20T14:27:58.334Z,39.78
2023-04-20T14:30:33.200Z,39.33
2023-04-20T14:33:10.791Z,38.36
2023-04-20T14:35:52.138Z,39.07
2023-04-20T14:38:30.763Z,35.75
2023-04-20T14:41:05.700Z,35.73
2023-04-20T14:43:49.628Z,39.87
2023-04-20T14:46:25.671Z,32.84
2023-04-20T14:49:07.302Z,33.53
2023-04-20T14:51:47.987Z,38.69
2023-04-20T14:54:21.012Z,40.40
2023-04-20T14:57:01.609Z,38.92
2023-04-20T14:59:37.632Z,38.47
2023-04-20T15:02:15.415Z,38.45
2023-04-20T15:04:54.138Z,38.97
2023-04-20T15:07:40.978Z,44.00
2023-04-20T15:10:13.854Z,44.43
2023-04-20T15:12:57.670Z,45.80
2023-04-20T15:15:47.747Z,47.72
2023-04-20T15:18:30.802Z,49.55
2023-04-20T15:21:03.635Z,48.67
2023-04-20T15:23:38.240Z,48.59
2023-04-20T15:26:14.808Z,48.98
2023-04-20T15:28:49.547Z,48.93
2023-04-20T15:31:19.704Z,48.08
2023-04-20T15:33:52.451Z,46.54
2023-04-20T15:36:29.634Z,46.98
2023-04-20T15:39:16.157Z,45.41
2023-04-20T15:41:51.642Z,45.46
2023-04-20T15:44:28.817Z,46.81
2023-04-20T15:47:03.789Z,46.87
2023-04-20T15:49:36.710Z,47.94
2023-04-20T15:52:07.607Z,48.52
2023-04-20T15:54:37.477Z,49.08
2023-04-20T15:57:21.628Z,47.73
2023-04-20T15:59:59.871Z,48.66
2023-04-20T16:02:34.949Z,49.32
2023-04-20T16:05:11.597Z,49.70
2023-04-20T16:07:53.730Z,51.34
2023-04-20T16:10:28.713Z,52.03
2023-04-20T16:13:12.993Z,52.23
2023-04-20T16:15:59.176Z,51.99
2023-04-20T16:18:42.289Z,52.79
2023-04-20T16:21:27.601Z,51.61
2023-04-20T16:24:03.383Z,52.82
2023-04-20T16:26:39.600Z,52.99
2023-04-20T16:29:13.889Z,53.67
2023-04-20T16:31:57.911Z,54.24
2023-04-20T16:34:35.649Z,55.85
2023-04-20T16:37:14.263Z,56.34
2023-04-20T16:39:54.533Z,57.36
2023-04-20T16:42:34.409Z,58.60
2023-04-20T16:45:13.129Z,58.50
2023-04-20T16:47:57.801Z,59.89
2023-04-20T16:50:32.785Z,61.21
2023-04-20T16:53:11.637Z,61.43
2023-04-20T16:55:52.921Z,61.97
2023-04-20T16:58:28.369Z,62.55
2023-04-20T17:01:09.672Z,63.12
2023-04-20T17:03:52.553Z,63.64
2023-04-20T17:06:33.424Z,62.83
2023-04-20T17:09:11.396Z,63.76
2023-04-20T17:12:05.001Z,64.22
2023-04-20T17:14:43.531Z,65.02
2023-04-20T17:17:19.647Z,65.91
2023-04-20T17:19:52.172Z,67.37
2023-04-20T17:22:37.442Z,67.07
2023-04-20T17:25:13.185Z,66.66
2023-04-20T17:27:47.927Z,66.43
2023-04-20T17:30:23.735Z,68.62
2023-04-20T17:33:03.614Z,68.30
2023-04-20T17:35:46.543Z,69.15
2023-04-20T17:38:19.586Z,70.12
2023-04-20T17:40:55.621Z,70.31
2023-04-20T17:43:30.811Z,72.12
2023-04-20T17:46:08.638Z,72.59
2023-04-20T17:48:47.393Z,74.51
2023-04-20T17:51:30.770Z,73.95
2023-04-20T17:54:09.815Z,75.77
2023-04-20T17:56:44.872Z,73.72
2023-04-20T17:59:22.958Z,70.66
2023-04-20T18:01:58.882Z,69.78
2023-04-20T18:04:36.061Z,69.09
2023-04-20T18:07:13.184Z,68.99
2023-04-20T18:09:50.770Z,69.09
2023-04-20T18:12:26.194Z,69.03
2023-04-20T18:15:05.015Z,69.83
2023-04-20T18:17:39.623Z,70.93
2023-04-20T18:20:15.307Z,71.42
2023-04-20T18:22:50.341Z,72.26
2023-04-20T18:25:26.198Z,72.26
2023-04-20T18:28:02.317Z,72.99
2023-04-20T18:30:44.278Z,73.92
2023-04-20T18:33:18.981Z,74.00
2023-04-20T18:35:51.271Z,75.04
2023-04-20T18:38:39.211Z,76.24
2023-04-20T18:41:27.839Z,77.93
2023-04-20T18:44:16.438Z,78.51
2023-04-20T18:46:51.762Z,78.65
2023-04-20T18:49:38.078Z,79.58
2023-04-20T18:52:13.815Z,81.31
2023-04-20T18:54:54.809Z,83.50
2023-04-20T18:57:30.937Z,86.00
2023-04-20T19:00:08.053Z,87.41
2023-04-20T19:02:42.956Z,88.61
2023-04-20T19:05:18.189Z,90.13
2023-04-20T19:07:51.070Z,91.53
2023-04-20T19:10:25.794Z,92.54
2023-04-20T19:13:02.753Z,93.76
2023-04-20T19:15:41.460Z,93.76
2023-04-20T19:18:22.651Z,94.81
2023-04-20T19:20:57.028Z,94.82
2023-04-20T19:23:31.603Z,96.07
2023-04-20T19:26:08.882Z,99.83
2023-04-20T19:28:49.554Z,99.51
2023-04-20T19:31:24.928Z,100.00
2023-04-20T19:34:08.186Z,100.00
2023-04-20T19:36:48.837Z,100.00
2023-04-20T19:39:29.624Z,100.00
2023-04-20T19:42:10.839Z,100.00
2023-04-20T19:44:48.531Z,100.00
2023-04-20T19:47:29.667Z,100.00
2023-04-20T19:50:08.218Z,100.00
2023-04-20T19:52:49.516Z,100.00
2023-04-20T19:55:26.405Z,100.00
2023-04-20T19:58:09.270Z,100.00
2023-04-20T20:00:47.226Z,100.00
2023-04-20T20:03:25.838Z,100.00
2023-04-20T20:06:01.317Z,100.00
2023-04-20T20:08:37.624Z,100.00
2023-04-20T20:11:16.459Z,100.00
2023-04-20T20:13:51.946Z,100.00
2023-04-20T20:16:24.770Z,100.00
2023-04-20T20:19:00.569Z,100.00
2023-04-20T20:21:35.360Z,100.00
2023-04-20T20:24:10.861Z,100.00
2023-04-20T20:26:51.350Z,100.00
2023-04-20T20:29:31.766Z,100.00
2023-04-20T20:32:01.715Z,100.00
2023-04-20T20:34:38.441Z,100.00
2023-04-20T20:37:19.605Z,100.00
2023-04-20T20:39:58.676Z,100.00
2023-04-20T20:42:33.957Z,100.00
2023-04-20T20:45:12.544Z,100.00
2023-04-20T20:47:50.131Z,100.00
2023-04-20T20:50:27.911Z,100.00
2023-04-20T20:53:11.769Z,100.00
2023-04-20T20:55:46.802Z,100.00
2023-04-20T20:58:22.227Z,100.00
2023-04-20T21:00:57.888Z,100.00
2023-04-20T21:03:33.400Z,100.00
2023-04-20T21:06:11.747Z,100.00
2023-04-20T21:08:41.261Z,100.00
2023-04-20T21:11:19.461Z,100.00
2023-04-20T21:13:56.557Z,100.00
2023-04-20T21:16:40.677Z,100.00
2023-04-20T21:19:15.753Z,100.00
2023-04-20T21:21:48.093Z,100.00
2023-04-20T21:24:30.998Z,100.00
2023-04-20T21:27:11.546Z,100.00
2023-04-20T21:29:44.194Z,100.00
2023-04-20T21:32:17.512Z,100.00
2023-04-20T21:34:52.680Z,100.00
2023-04-20T21:37:28.909Z,100.00
2023-04-20T21:40:01.679Z,100.00
2023-04-20T21:42:36.112Z,100.00
2023-04-20T21:45:17.853Z,100.00
2023-04-20T21:47:58.688Z,100.00
2023-04-20T21:50:33.860Z,100.00
2023-04-20T21:53:20.037Z,100.00
2023-04-20T21:56:00.471Z,100.00
2023-04-20T21:58:40.599Z,100.00
2023-04-20T22:01:15.283Z,100.00
2023-04-20T22:03:47.868Z,100.00
2023-04-20T22:06:23.532Z,100.00
2023-04-20T22:09:04.472Z,100.00
2023-04-20T22:11:37.695Z,100.00
2023-04-20T22:14:14.202Z,100.00
2023-04-20T22:16:52.628Z,100.00
2023-04-20T22:19:36.673Z,100.00
2023-04-20T22:22:08.751Z,100.00
2023-04-20T22:24:41.186Z,100.00
2023-04-20T22:27:16.369Z,100.00
2023-04-20T22:29:46.110Z,100.00
2023-04-20T22:32:21.477Z,100.00
2023-04-20T22:34:54.044Z,100.00
2023-04-20T22:37:31.640Z,100.00
2023-04-20T22:40:07.652Z,100.00
2023-04-20T22:42:40.345Z,100.00
2023-04-20T22:45:21.187Z,100.00
2023-04-20T22:47:56.471Z,100.00
2023-04-20T22:50:35.614Z,100.00
2023-04-20T22:53:08.654Z,100.00
2023-04-20T22:55:41.291Z,100.00
2023-04-20T22:58:19.180Z,100.00
2023-04-20T23:00:56.253Z,100.00
2023-04-20T23:03:28.958Z,100.00
2023-04-20T23:06:11.231Z,100.00
2023-04-20T23:08:44.607Z,100.00
2023-04-20T23:11:29.531Z,100.00
2023-04-20T23:14:05.285Z,100.00
2023-04-20T23:16:41.192Z,100.00
2023-04-20T23:19:21.890Z,100.00
2023-04-20T23:21:58.077Z,100.00
2023-04-20T23:24:36.637Z,100.00
2023-04-20T23:27:11.417Z,100.00
2023-04-20T23:29:49.031Z,100.00
2023-04-20T23:32:26.977Z,100.00
2023-04-20T23:34:59.769Z,100.00
2023-04-20T23:37:40.539Z,100.00
2023-04-20T23:40:19.271Z,100.00
2023-04-20T23:43:01.545Z,100.00
2023-04-20T23:45:39.786Z,100.00
2023-04-20T23:48:18.606Z,100.00
2023-04-20T23:50:55.772Z,100.00
2023-04-20T23:53:34.261Z,100.00
2023-04-20T23:56:10.421Z,100.00
2023-04-20T23:58:50.950Z,100.00
